Time;durP1;ratioP1;P1;durP2;ratioP2;P2;SDS_P1;SDS_P2;PMS_P1;PMS_P2;Temp;Humidity;BMP_temperature;BMP_pressure;BME280_temperature;BME280_humidity;BME280_pressure;Samples;Min_cycle;Max_cycle;Signal;HPM_P1;HPM_P2
2024/01/13 00:00:21;;;;;;;2.63;1.15;;;2.70;99.90;;;;;;4992066;28;20072;-76
2024/01/13 00:02:47;;;;;;;1.10;0.90;;;2.70;99.90;;;;;;5022623;28;20071;-77
2024/01/13 00:05:13;;;;;;;0.82;0.70;;;2.70;99.90;;;;;;5024051;28;20045;-77
2024/01/13 00:07:38;;;;;;;5.10;0.65;;;2.70;99.90;;;;;;5039192;28;20049;-76
2024/01/13 00:10:04;;;;;;;0.80;0.75;;;2.70;99.90;;;;;;5007208;28;20269;-75
2024/01/13 00:12:30;;;;;;;2.33;0.95;;;2.60;99.90;;;;;;5005709;28;20400;-74
2024/01/13 00:14:56;;;;;;;1.17;1.02;;;2.70;99.90;;;;;;5051743;28;20056;-74
2024/01/13 00:17:21;;;;;;;0.85;0.63;;;2.60;99.90;;;;;;5040092;28;20049;-74
2024/01/13 00:19:47;;;;;;;1.73;1.23;;;2.80;99.90;;;;;;5022234;28;20124;-75
2024/01/13 00:22:13;;;;;;;2.95;0.75;;;2.70;99.90;;;;;;4991134;28;20046;-74
2024/01/13 00:24:38;;;;;;;2.70;0.90;;;2.60;99.90;;;;;;5022859;28;20041;-75
2024/01/13 00:27:04;;;;;;;1.73;0.70;;;2.70;99.90;;;;;;5006489;28;20109;-74
2024/01/13 00:29:30;;;;;;;1.70;1.02;;;2.70;99.90;;;;;;4988549;28;20053;-74
2024/01/13 00:31:57;;;;;;;1.85;0.95;;;2.70;99.90;;;;;;4979220;28;20038;-74
2024/01/13 00:34:23;;;;;;;1.63;1.45;;;2.70;99.90;;;;;;5036726;28;20054;-75
2024/01/13 00:36:49;;;;;;;1.90;1.00;;;2.70;99.90;;;;;;5033395;28;20057;-74
2024/01/13 00:39:14;;;;;;;4.28;0.88;;;2.70;99.90;;;;;;5022235;28;20037;-74
2024/01/13 00:41:40;;;;;;;0.98;0.75;;;2.70;99.90;;;;;;5022046;28;20041;-74
2024/01/13 00:44:06;;;;;;;2.80;1.45;;;2.80;99.90;;;;;;5013666;28;20484;-74
2024/01/13 00:46:31;;;;;;;0.90;0.65;;;2.70;99.90;;;;;;4998903;28;20057;-75
2024/01/13 00:48:57;;;;;;;1.42;1.00;;;2.80;99.90;;;;;;5013474;28;20071;-77
2024/01/13 00:51:23;;;;;;;2.83;1.00;;;2.80;99.90;;;;;;4988162;28;20481;-77
2024/01/13 00:53:48;;;;;;;0.95;0.77;;;2.80;99.90;;;;;;4981630;28;20056;-76
2024/01/13 00:56:14;;;;;;;1.17;0.80;;;2.80;99.90;;;;;;5032477;28;20038;-76
2024/01/13 00:58:40;;;;;;;2.50;0.85;;;2.80;99.90;;;;;;5013089;28;20359;-77
2024/01/13 01:01:06;;;;;;;1.33;0.93;;;2.80;99.90;;;;;;4999661;28;20033;-77
2024/01/13 01:03:31;;;;;;;1.00;0.63;;;2.80;99.90;;;;;;5005886;28;20075;-76
2024/01/13 01:05:58;;;;;;;1.75;1.08;;;2.90;99.90;;;;;;5002260;28;20056;-77
2024/01/13 01:08:23;;;;;;;0.82;0.73;;;2.90;99.90;;;;;;5037167;28;20037;-77
2024/01/13 01:10:49;;;;;;;1.20;1.05;;;2.90;99.90;;;;;;5020576;28;20106;-77
2024/01/13 01:13:15;;;;;;;4.82;1.02;;;2.90;99.90;;;;;;5003792;28;20045;-77
2024/01/13 01:15:41;;;;;;;1.10;0.50;;;2.90;99.90;;;;;;5037014;28;20125;-77
2024/01/13 01:18:06;;;;;;;1.92;0.52;;;2.90;99.90;;;;;;5016343;28;20083;-77
2024/01/13 01:20:33;;;;;;;1.75;0.70;;;2.90;99.90;;;;;;5017627;28;20045;-77
2024/01/13 01:22:58;;;;;;;1.30;0.77;;;2.90;99.90;;;;;;5012800;28;20137;-77
2024/01/13 01:25:24;;;;;;;0.60;0.43;;;2.90;99.90;;;;;;5022177;28;20052;-77
2024/01/13 01:27:50;;;;;;;1.13;0.80;;;2.90;99.90;;;;;;5002038;28;20076;-77
2024/01/13 01:30:15;;;;;;;0.80;0.80;;;2.90;99.90;;;;;;5003672;28;20049;-77
2024/01/13 01:32:41;;;;;;;1.00;0.70;;;3.00;99.90;;;;;;5037181;28;20044;-77
2024/01/13 01:35:07;;;;;;;1.42;1.25;;;3.00;99.90;;;;;;5037051;28;20129;-77
2024/01/13 01:37:33;;;;;;;3.78;0.73;;;3.00;99.90;;;;;;5003159;28;20045;-77
2024/01/13 01:39:59;;;;;;;1.27;0.98;;;3.00;99.90;;;;;;5018721;28;20037;-77
2024/01/13 01:42:25;;;;;;;4.50;1.55;;;3.00;99.90;;;;;;5011735;28;20151;-77
2024/01/13 01:44:50;;;;;;;1.15;0.60;;;3.00;99.90;;;;;;5020243;28;20057;-77
2024/01/13 01:47:19;;;;;;;1.63;1.10;;;3.00;99.90;;;;;;5006267;28;20044;-77
2024/01/13 01:49:46;;;;;;;1.42;1.10;;;3.00;99.90;;;;;;5039376;28;20484;-77
2024/01/13 01:52:14;;;;;;;1.92;1.20;;;3.00;99.90;;;;;;5001116;28;20091;-77
2024/01/13 01:54:40;;;;;;;3.72;0.80;;;3.00;99.90;;;;;;5038892;28;20048;-77
2024/01/13 01:57:08;;;;;;;1.67;1.10;;;3.00;99.90;;;;;;5025868;28;20052;-77
2024/01/13 01:59:34;;;;;;;1.83;1.27;;;3.00;99.90;;;;;;5040443;28;20065;-77
2024/01/13 02:02:00;;;;;;;6.38;1.23;;;3.00;99.90;;;;;;5021706;28;20039;-77
2024/01/13 02:04:26;;;;;;;1.27;0.88;;;3.10;99.90;;;;;;5020358;28;20041;-77
2024/01/13 02:06:52;;;;;;;1.48;1.27;;;3.00;99.90;;;;;;5004356;28;20041;-77
2024/01/13 02:09:19;;;;;;;2.53;0.90;;;3.00;99.90;;;;;;5034367;28;20096;-77
2024/01/13 02:11:45;;;;;;;1.25;1.15;;;3.00;99.90;;;;;;5009016;28;20042;-77
2024/01/13 02:14:11;;;;;;;1.27;0.90;;;3.00;99.90;;;;;;5025929;28;20045;-77
2024/01/13 02:16:37;;;;;;;0.90;0.65;;;3.00;99.90;;;;;;5044653;28;20148;-77
2024/01/13 02:19:02;;;;;;;1.25;1.05;;;3.00;99.90;;;;;;5041946;28;20548;-77
2024/01/13 02:21:28;;;;;;;4.03;1.33;;;3.00;99.90;;;;;;5026431;28;20049;-77
2024/01/13 02:23:54;;;;;;;2.42;0.93;;;3.00;99.90;;;;;;5024279;28;20045;-77
2024/01/13 02:26:20;;;;;;;1.45;1.15;;;3.00;99.90;;;;;;5025990;28;20049;-77
2024/01/13 02:28:45;;;;;;;1.95;1.30;;;3.00;99.90;;;;;;5008953;28;20061;-77
2024/01/13 02:31:12;;;;;;;1.30;0.88;;;3.00;99.90;;;;;;5025447;28;20117;-77
2024/01/13 02:33:38;;;;;;;1.88;1.13;;;2.90;99.90;;;;;;4978449;28;20050;-77
2024/01/13 02:36:04;;;;;;;1.58;0.98;;;3.00;99.90;;;;;;5024284;28;20056;-77
2024/01/13 02:38:29;;;;;;;2.80;0.95;;;2.90;99.90;;;;;;5010010;28;20049;-77
2024/01/13 02:40:55;;;;;;;1.40;1.10;;;3.00;99.90;;;;;;5038572;28;20075;-77
2024/01/13 02:43:21;;;;;;;3.60;1.13;;;3.00;99.90;;;;;;5000215;28;20041;-78
2024/01/13 02:45:46;;;;;;;2.08;1.27;;;3.00;99.90;;;;;;5005919;28;20037;-77
2024/01/13 02:48:18;;;;;;;1.55;1.25;;;3.00;99.90;;;;;;5023661;28;20050;-77
2024/01/13 02:51:00;;;;;;;2.25;0.77;;;3.00;99.90;;;;;;5038637;28;20141;-77
2024/01/13 02:53:26;;;;;;;;;;;3.00;99.90;;;;;;5032884;28;20073;-77
2024/01/13 02:55:52;;;;;;;2.97;1.35;;;3.00;99.90;;;;;;5022206;28;20387;-77
2024/01/13 02:58:18;;;;;;;1.40;1.30;;;3.00;99.90;;;;;;5032539;28;20030;-77
2024/01/13 03:00:43;;;;;;;1.83;1.02;;;3.00;99.90;;;;;;4988883;28;20071;-77
2024/01/13 03:03:09;;;;;;;1.13;0.90;;;3.00;99.90;;;;;;5037622;28;20037;-77
2024/01/13 03:05:35;;;;;;;1.50;1.30;;;3.00;99.90;;;;;;5032871;28;20045;-77
2024/01/13 03:08:00;;;;;;;2.33;1.65;;;3.00;99.90;;;;;;5024582;28;20097;-77
2024/01/13 03:10:26;;;;;;;2.15;1.27;;;3.00;99.90;;;;;;5020037;28;20041;-77
2024/01/13 03:12:52;;;;;;;1.75;1.10;;;2.90;99.90;;;;;;4993112;28;20065;-77
2024/01/13 03:15:18;;;;;;;1.65;0.85;;;3.00;99.90;;;;;;5016391;28;20044;-77
2024/01/13 03:17:43;;;;;;;1.80;1.10;;;3.00;99.90;;;;;;5025183;28;20683;-77
2024/01/13 03:20:10;;;;;;;1.05;0.85;;;3.00;99.90;;;;;;5022852;28;20057;-77
2024/01/13 03:22:35;;;;;;;1.75;0.88;;;3.00;99.90;;;;;;5039432;28;20068;-77
2024/01/13 03:25:01;;;;;;;1.88;1.13;;;2.90;99.90;;;;;;5024846;28;20100;-75
2024/01/13 03:27:27;;;;;;;2.25;0.93;;;2.90;99.90;;;;;;5002677;28;20037;-75
2024/01/13 03:29:52;;;;;;;2.45;1.60;;;2.90;99.90;;;;;;4991477;28;20060;-75
2024/01/13 03:32:18;;;;;;;3.20;1.40;;;2.90;99.90;;;;;;5038439;28;20052;-75
2024/01/13 03:34:44;;;;;;;3.83;1.45;;;2.90;99.90;;;;;;5024723;28;20045;-75
2024/01/13 03:37:09;;;;;;;1.40;0.90;;;2.90;99.90;;;;;;5023579;28;20061;-75
2024/01/13 03:39:35;;;;;;;2.08;1.27;;;2.90;99.90;;;;;;5002348;28;20057;-77
2024/01/13 03:42:01;;;;;;;2.15;1.60;;;2.90;99.90;;;;;;5000778;28;20097;-77
2024/01/13 03:44:26;;;;;;;2.03;1.10;;;2.80;99.90;;;;;;5015641;28;20131;-77
2024/01/13 03:46:52;;;;;;;1.02;0.80;;;2.90;99.90;;;;;;5018061;28;20103;-77
2024/01/13 03:49:18;;;;;;;1.10;0.82;;;2.90;99.90;;;;;;5038186;28;20104;-78
2024/01/13 03:51:43;;;;;;;2.88;1.55;;;2.80;99.90;;;;;;5014107;28;20044;-77
2024/01/13 03:54:09;;;;;;;1.95;1.52;;;2.90;99.90;;;;;;5004683;28;20447;-77
2024/01/13 03:56:34;;;;;;;1.33;1.10;;;2.80;99.90;;;;;;5022443;28;20498;-77
2024/01/13 03:59:00;;;;;;;2.95;1.48;;;2.90;99.90;;;;;;5020355;28;20095;-77
2024/01/13 04:01:26;;;;;;;1.35;1.00;;;2.90;99.90;;;;;;5021781;28;20128;-77
2024/01/13 04:03:52;;;;;;;1.02;0.75;;;2.90;99.90;;;;;;5041562;28;20132;-77
2024/01/13 04:06:18;;;;;;;1.95;1.10;;;2.90;99.90;;;;;;5025330;28;20076;-78
2024/01/13 04:08:46;;;;;;;3.10;1.77;;;2.90;99.90;;;;;;5024437;28;20049;-77
2024/01/13 04:11:12;;;;;;;2.25;1.25;;;2.90;99.90;;;;;;5022424;28;20054;-78
2024/01/13 04:13:38;;;;;;;2.95;1.33;;;2.90;99.90;;;;;;5007405;28;20419;-77
2024/01/13 04:16:04;;;;;;;1.77;1.25;;;2.90;99.90;;;;;;5022524;28;20052;-78
2024/01/13 04:18:30;;;;;;;2.33;1.17;;;2.90;99.90;;;;;;5039664;28;20112;-77
2024/01/13 04:20:55;;;;;;;1.17;0.98;;;2.90;99.90;;;;;;5004275;28;20180;-77
2024/01/13 04:23:21;;;;;;;3.83;1.27;;;2.90;99.90;;;;;;5005311;28;20049;-78
2024/01/13 04:25:47;;;;;;;2.72;1.45;;;2.90;99.90;;;;;;5024122;28;20111;-78
2024/01/13 04:28:12;;;;;;;2.53;1.25;;;2.90;99.90;;;;;;5038874;28;20105;-78
2024/01/13 04:30:38;;;;;;;2.03;1.05;;;2.90;99.90;;;;;;5005405;28;20042;-78
2024/01/13 04:33:04;;;;;;;1.90;1.00;;;2.90;99.90;;;;;;4983613;28;20060;-78
2024/01/13 04:35:30;;;;;;;2.83;0.85;;;2.90;99.90;;;;;;5003546;28;20115;-78
2024/01/13 04:37:55;;;;;;;1.30;1.10;;;2.90;99.90;;;;;;4993841;28;20045;-78
2024/01/13 04:40:21;;;;;;;1.02;0.80;;;2.90;99.90;;;;;;5034127;28;20088;-78
2024/01/13 04:42:47;;;;;;;0.98;0.70;;;2.90;99.90;;;;;;5039851;28;20049;-78
2024/01/13 04:45:13;;;;;;;0.68;0.47;;;2.90;99.90;;;;;;5016653;28;20101;-78
2024/01/13 04:47:39;;;;;;;2.90;0.82;;;2.90;99.90;;;;;;5037898;28;20049;-78
2024/01/13 04:50:05;;;;;;;1.08;0.77;;;2.90;99.90;;;;;;5022315;28;20053;-78
2024/01/13 04:52:31;;;;;;;2.55;0.93;;;2.90;99.90;;;;;;5014248;28;20045;-78
2024/01/13 04:54:57;;;;;;;2.00;0.85;;;2.90;99.90;;;;;;5001394;28;20097;-78
2024/01/13 04:57:23;;;;;;;1.38;1.25;;;2.90;99.90;;;;;;4999736;28;20046;-78
2024/01/13 04:59:48;;;;;;;2.42;1.25;;;2.80;99.90;;;;;;5020655;28;20057;-78
2024/01/13 05:02:14;;;;;;;1.75;0.80;;;2.90;99.90;;;;;;5035452;28;20457;-78
2024/01/13 05:04:40;;;;;;;2.70;1.00;;;2.90;99.90;;;;;;5019851;28;20040;-78
2024/01/13 05:07:07;;;;;;;1.30;0.80;;;2.90;99.90;;;;;;5029545;28;20045;-78
2024/01/13 05:09:33;;;;;;;2.33;0.90;;;2.90;99.90;;;;;;5018779;28;20518;-78
2024/01/13 05:11:58;;;;;;;0.90;0.45;;;2.90;99.90;;;;;;5038261;28;20049;-78
2024/01/13 05:14:24;;;;;;;2.08;0.95;;;2.70;99.90;;;;;;5004297;28;20054;-78
2024/01/13 05:16:50;;;;;;;1.38;1.23;;;2.90;99.90;;;;;;5001643;28;20102;-78
2024/01/13 05:19:17;;;;;;;0.68;0.68;;;2.90;99.90;;;;;;5004701;28;20425;-78
2024/01/13 05:21:43;;;;;;;1.33;0.90;;;2.70;99.90;;;;;;5039016;28;20049;-78
2024/01/13 05:24:09;;;;;;;2.20;0.90;;;2.80;99.90;;;;;;5020790;28;20036;-78
2024/01/13 05:26:35;;;;;;;1.02;0.60;;;2.80;99.90;;;;;;5003822;28;20041;-78
2024/01/13 05:29:01;;;;;;;0.88;0.75;;;2.90;99.90;;;;;;5017552;28;20060;-78
2024/01/13 05:31:27;;;;;;;0.57;0.40;;;2.70;99.90;;;;;;5026570;28;20053;-78
2024/01/13 05:33:52;;;;;;;0.43;0.30;;;2.80;99.90;;;;;;5021179;28;20061;-78
2024/01/13 05:36:18;;;;;;;0.50;0.50;;;2.80;99.90;;;;;;5020047;28;20484;-78
2024/01/13 05:38:44;;;;;;;3.03;1.00;;;2.80;99.90;;;;;;5016010;28;20388;-78
2024/01/13 05:41:10;;;;;;;2.00;0.90;;;2.80;99.90;;;;;;4994550;28;20133;-78
2024/01/13 05:43:36;;;;;;;4.45;0.88;;;2.80;99.90;;;;;;5019430;28;20065;-78
2024/01/13 05:46:02;;;;;;;2.72;0.60;;;2.80;99.90;;;;;;5020684;28;20080;-78
2024/01/13 05:48:28;;;;;;;1.58;0.82;;;2.80;99.90;;;;;;5020351;28;20073;-78
2024/01/13 05:50:54;;;;;;;1.60;0.63;;;2.80;99.90;;;;;;4999625;28;20076;-78
2024/01/13 05:53:20;;;;;;;3.08;0.52;;;2.90;99.90;;;;;;4994681;28;20038;-78
2024/01/13 05:55:45;;;;;;;1.52;0.93;;;2.80;99.90;;;;;;5014870;28;20045;-78
2024/01/13 05:58:11;;;;;;;1.02;0.73;;;2.90;99.90;;;;;;4999838;28;20065;-78
2024/01/13 06:00:37;;;;;;;1.00;0.70;;;2.80;99.90;;;;;;5021070;28;20048;-78
2024/01/13 06:03:03;;;;;;;0.45;0.45;;;2.90;99.90;;;;;;5015600;28;20042;-78
2024/01/13 06:05:28;;;;;;;5.47;1.33;;;2.80;99.90;;;;;;5004596;28;20041;-77
2024/01/13 06:07:54;;;;;;;1.15;0.55;;;2.80;99.90;;;;;;5020526;28;20042;-77
2024/01/13 06:10:20;;;;;;;1.48;0.63;;;2.70;99.90;;;;;;5021260;28;20042;-77
2024/01/13 06:12:46;;;;;;;0.65;0.52;;;2.70;99.90;;;;;;5038938;28;20053;-77
2024/01/13 06:15:12;;;;;;;1.55;0.68;;;2.70;99.90;;;;;;5035851;28;20076;-77
2024/01/13 06:17:38;;;;;;;1.08;0.45;;;2.80;99.90;;;;;;4990094;28;20129;-77
2024/01/13 06:20:04;;;;;;;0.70;0.68;;;2.80;99.90;;;;;;5037348;28;20042;-77
2024/01/13 06:22:30;;;;;;;2.05;1.13;;;2.80;99.90;;;;;;5019978;28;20124;-77
2024/01/13 06:24:55;;;;;;;0.77;0.60;;;2.80;99.90;;;;;;5021512;28;20045;-77
2024/01/13 06:27:21;;;;;;;0.90;0.80;;;2.80;99.90;;;;;;5020942;28;20041;-77
2024/01/13 06:29:47;;;;;;;1.63;1.23;;;2.80;99.90;;;;;;5038489;28;20060;-77
2024/01/13 06:32:12;;;;;;;4.85;1.45;;;2.80;99.90;;;;;;5002945;28;20041;-77
2024/01/13 06:34:38;;;;;;;3.08;0.98;;;2.80;99.90;;;;;;5007801;28;20136;-77
2024/01/13 06:37:04;;;;;;;2.72;1.20;;;2.80;99.90;;;;;;4985932;28;20037;-77
2024/01/13 06:39:30;;;;;;;3.75;1.13;;;2.80;99.90;;;;;;5056910;28;20069;-77
2024/01/13 06:41:56;;;;;;;1.23;1.05;;;2.90;99.90;;;;;;4995820;28;20038;-77
2024/01/13 06:44:21;;;;;;;1.95;1.13;;;2.80;99.90;;;;;;5038049;28;20052;-77
2024/01/13 06:46:47;;;;;;;2.00;1.30;;;2.90;99.90;;;;;;5025213;28;20038;-77
2024/01/13 06:49:13;;;;;;;1.05;0.85;;;2.90;99.90;;;;;;5004510;28;20095;-77
2024/01/13 06:51:38;;;;;;;0.65;0.52;;;2.90;99.90;;;;;;5025113;28;20175;-77
2024/01/13 06:54:05;;;;;;;0.95;0.68;;;2.90;99.90;;;;;;5019032;28;20030;-77
2024/01/13 06:56:31;;;;;;;1.40;1.30;;;2.90;99.90;;;;;;5036880;28;20057;-77
2024/01/13 06:58:56;;;;;;;1.17;0.98;;;2.90;99.90;;;;;;5016999;28;20042;-77
2024/01/13 07:01:22;;;;;;;1.25;0.90;;;2.90;99.90;;;;;;5021811;28;20073;-77
2024/01/13 07:03:48;;;;;;;0.95;0.75;;;2.90;99.90;;;;;;5035141;28;20049;-78
2024/01/13 07:06:13;;;;;;;1.05;0.70;;;2.90;99.90;;;;;;5027611;28;20041;-78
2024/01/13 07:08:43;;;;;;;1.00;0.90;;;2.90;99.90;;;;;;5022826;28;20052;-78
2024/01/13 07:11:15;;;;;;;1.17;0.85;;;3.00;99.90;;;;;;5020166;28;20038;-78
2024/01/13 07:13:42;;;;;;;1.45;0.57;;;3.00;99.90;;;;;;5025212;28;20033;-78
2024/01/13 07:16:07;;;;;;;1.35;0.75;;;2.90;99.90;;;;;;5040974;28;20096;-78
2024/01/13 07:18:33;;;;;;;1.23;0.80;;;3.00;99.90;;;;;;5022417;28;20473;-77
2024/01/13 07:20:59;;;;;;;1.27;0.82;;;3.00;99.90;;;;;;5023699;28;20498;-78
2024/01/13 07:23:24;;;;;;;1.00;0.57;;;3.00;99.90;;;;;;5009021;28;20067;-78
2024/01/13 07:25:50;;;;;;;2.08;1.08;;;3.00;99.90;;;;;;5041059;28;20037;-78
2024/01/13 07:28:16;;;;;;;0.82;0.65;;;3.10;99.90;;;;;;5007396;28;20037;-78
2024/01/13 07:30:41;;;;;;;1.88;0.70;;;3.00;99.90;;;;;;5005780;28;20060;-78
2024/01/13 07:33:07;;;;;;;0.70;0.70;;;3.00;99.90;;;;;;5002668;28;20046;-78
2024/01/13 07:35:35;;;;;;;1.42;0.80;;;3.10;99.90;;;;;;5005482;28;20042;-78
2024/01/13 07:38:01;;;;;;;0.70;0.57;;;3.10;99.90;;;;;;5039994;28;20114;-78
2024/01/13 07:40:27;;;;;;;3.30;1.02;;;3.10;99.90;;;;;;5020092;28;20080;-78
2024/01/13 07:42:52;;;;;;;0.85;0.77;;;3.10;99.90;;;;;;5002841;28;20061;-78
2024/01/13 07:45:18;;;;;;;1.75;0.82;;;3.10;99.90;;;;;;5001626;28;20046;-78
2024/01/13 07:47:46;;;;;;;2.22;0.90;;;3.10;99.90;;;;;;5033194;28;20455;-78
2024/01/13 07:50:11;;;;;;;1.40;0.98;;;3.10;99.90;;;;;;5037356;28;20052;-78
2024/01/13 07:52:37;;;;;;;0.95;0.60;;;3.10;99.90;;;;;;5022068;28;20049;-78
2024/01/13 07:55:04;;;;;;;0.93;0.60;;;3.20;99.90;;;;;;5005226;28;20492;-78
2024/01/13 07:57:30;;;;;;;0.75;0.63;;;3.10;99.90;;;;;;5014499;28;20045;-78
2024/01/13 07:59:56;;;;;;;1.08;0.98;;;3.10;99.90;;;;;;5023986;28;20045;-78
2024/01/13 08:02:22;;;;;;;0.75;0.57;;;3.20;99.90;;;;;;5005966;28;20100;-78
2024/01/13 08:04:47;;;;;;;0.85;0.57;;;3.10;99.90;;;;;;5040584;28;20034;-78
2024/01/13 08:07:13;;;;;;;0.77;0.50;;;3.20;99.90;;;;;;4989435;28;20049;-79
2024/01/13 08:09:40;;;;;;;1.30;0.80;;;3.20;99.90;;;;;;5022403;28;20049;-78
2024/01/13 08:12:07;;;;;;;1.10;0.65;;;3.20;99.90;;;;;;5014430;28;20375;-79
2024/01/13 08:14:33;;;;;;;2.42;0.80;;;3.20;99.90;;;;;;4986913;28;20081;-79
2024/01/13 08:16:59;;;;;;;1.02;0.50;;;3.20;99.90;;;;;;5019773;28;20060;-79
2024/01/13 08:19:24;;;;;;;0.50;0.30;;;3.20;99.90;;;;;;5020646;28;20057;-79
2024/01/13 08:21:50;;;;;;;1.92;1.10;;;3.30;99.90;;;;;;5021646;28;20045;-77
2024/01/13 08:24:16;;;;;;;5.75;0.65;;;3.40;99.90;;;;;;5021286;28;20099;-79
2024/01/13 08:26:42;;;;;;;1.88;0.75;;;3.30;99.90;;;;;;5036600;28;20061;-79
2024/01/13 08:29:08;;;;;;;1.67;1.30;;;3.30;99.90;;;;;;5022087;28;20041;-79
2024/01/13 08:31:34;;;;;;;1.48;1.13;;;3.30;99.90;;;;;;5030931;28;20046;-78
2024/01/13 08:34:00;;;;;;;1.45;0.93;;;3.30;99.90;;;;;;5016310;28;20044;-78
2024/01/13 08:36:26;;;;;;;1.40;0.70;;;3.40;99.90;;;;;;5005458;28;20137;-79
2024/01/13 08:38:51;;;;;;;4.60;2.65;;;3.30;99.90;;;;;;5023718;28;20049;-79
2024/01/13 08:41:17;;;;;;;3.47;1.45;;;3.30;99.90;;;;;;5032512;28;20061;-79
2024/01/13 08:43:43;;;;;;;4.30;2.33;;;3.30;99.90;;;;;;5006300;28;20045;-79
2024/01/13 08:46:13;;;;;;;5.25;2.20;;;3.30;99.90;;;;;;5039639;28;20056;-79
2024/01/13 08:48:39;;;;;;;5.45;2.67;;;3.30;99.90;;;;;;5006654;28;20053;-79
2024/01/13 08:51:05;;;;;;;3.70;2.78;;;3.30;99.90;;;;;;5039770;28;20042;-79
2024/01/13 08:53:32;;;;;;;11.88;3.95;;;3.30;99.90;;;;;;5004982;28;20109;-79
2024/01/13 08:55:58;;;;;;;7.90;3.38;;;3.30;99.90;;;;;;5020406;28;20057;-78
2024/01/13 08:58:24;;;;;;;15.65;3.67;;;3.30;99.90;;;;;;4994291;28;20042;-79
2024/01/13 09:00:54;;;;;;;12.73;4.40;;;3.30;99.90;;;;;;5016495;28;20053;-79
2024/01/13 09:03:21;;;;;;;9.43;3.97;;;3.30;99.90;;;;;;5033001;28;20545;-79
2024/01/13 09:05:47;;;;;;;8.40;4.88;;;3.30;99.90;;;;;;5016309;28;20041;-79
2024/01/13 09:08:12;;;;;;;11.57;4.53;;;3.30;99.90;;;;;;4997873;28;20527;-79
2024/01/13 09:10:39;;;;;;;10.65;4.25;;;3.40;99.90;;;;;;5001282;28;20735;-79
2024/01/13 09:13:05;;;;;;;11.68;3.78;;;3.30;99.90;;;;;;5017124;28;20087;-79
2024/01/13 09:15:31;;;;;;;13.15;4.70;;;3.40;99.90;;;;;;5015897;28;20443;-79
2024/01/13 09:17:57;;;;;;;14.90;4.40;;;3.20;99.90;;;;;;5016504;28;20042;-78
2024/01/13 09:20:24;;;;;;;10.00;3.72;;;3.30;99.90;;;;;;5006203;28;20061;-78
2024/01/13 09:22:50;;;;;;;20.92;6.22;;;3.30;99.90;;;;;;5038279;28;20408;-78
2024/01/13 09:25:15;;;;;;;14.45;4.43;;;3.40;99.90;;;;;;5022873;28;20047;-79
2024/01/13 09:27:41;;;;;;;15.70;7.47;;;3.40;99.90;;;;;;5021740;28;20045;-78
2024/01/13 09:30:07;;;;;;;16.83;7.65;;;3.30;99.90;;;;;;5023019;28;20088;-78
2024/01/13 09:32:33;;;;;;;20.00;6.35;;;3.30;99.90;;;;;;5005442;28;20041;-79
2024/01/13 09:34:59;;;;;;;21.00;6.53;;;3.30;99.90;;;;;;5022801;28;20111;-78
2024/01/13 09:37:24;;;;;;;17.75;6.47;;;3.30;99.90;;;;;;5019303;28;20046;-77
2024/01/13 09:39:51;;;;;;;16.00;7.50;;;3.40;99.90;;;;;;4984478;28;20045;-78
2024/01/13 09:42:52;;;;;;;13.90;6.18;;;3.30;99.90;;;;;;4999853;28;20044;-77
2024/01/13 09:45:19;;;;;;;20.42;8.40;;;3.30;99.90;;;;;;5013481;28;20152;-77
2024/01/13 09:47:45;;;;;;;15.43;7.05;;;3.30;99.90;;;;;;5018950;28;20042;-77
2024/01/13 09:50:14;;;;;;;26.65;8.32;;;3.30;99.90;;;;;;5019388;28;20108;-77
2024/01/13 09:52:43;;;;;;;12.93;6.45;;;3.40;99.90;;;;;;5014932;28;20073;-79
2024/01/13 09:55:13;;;;;;;26.63;8.55;;;3.40;99.90;;;;;;5013073;28;20049;-77
2024/01/13 09:57:39;;;;;;;21.48;7.20;;;3.40;99.90;;;;;;5019489;28;20045;-77
2024/01/13 10:00:06;;;;;;;21.80;9.10;;;3.40;99.90;;;;;;5006033;28;20044;-77
2024/01/13 10:02:32;;;;;;;17.85;7.60;;;3.40;99.90;;;;;;5005143;28;20075;-77
2024/01/13 10:04:58;;;;;;;23.63;8.88;;;3.40;99.90;;;;;;5022740;28;20065;-77
2024/01/13 10:07:23;;;;;;;23.95;8.75;;;3.40;99.90;;;;;;5005641;28;20487;-77
2024/01/13 10:09:49;;;;;;;22.90;9.57;;;3.40;99.90;;;;;;5034456;28;20125;-77
2024/01/13 10:12:15;;;;;;;25.48;9.98;;;3.40;99.90;;;;;;5006760;28;20072;-77
2024/01/13 10:14:43;;;;;;;20.60;10.02;;;3.50;99.90;;;;;;5008778;28;20489;-77
2024/01/13 10:17:08;;;;;;;23.52;9.05;;;3.50;99.90;;;;;;5030126;28;20037;-77
2024/01/13 10:19:37;;;;;;;21.13;8.55;;;3.50;99.90;;;;;;5022972;28;20060;-77
2024/01/13 10:22:05;;;;;;;19.60;7.68;;;3.50;99.90;;;;;;5036917;28;20052;-77
2024/01/13 10:24:31;;;;;;;24.63;8.25;;;3.50;99.90;;;;;;5018939;28;20088;-78
2024/01/13 10:26:57;;;;;;;26.90;9.10;;;3.50;99.90;;;;;;5022364;28;20063;-77
2024/01/13 10:29:23;;;;;;;37.70;9.93;;;3.50;99.90;;;;;;5009855;28;20084;-78
2024/01/13 10:31:53;;;;;;;20.00;8.38;;;3.50;99.90;;;;;;5005154;28;20025;-77
2024/01/13 10:34:19;;;;;;;21.25;8.90;;;3.60;99.90;;;;;;5042697;28;20442;-77
2024/01/13 10:36:45;;;;;;;28.73;11.48;;;3.60;99.90;;;;;;5023058;28;20495;-77
2024/01/13 10:39:11;;;;;;;24.25;9.77;;;3.70;99.90;;;;;;5026009;28;20033;-77
2024/01/13 10:41:42;;;;;;;24.52;9.95;;;3.70;99.90;;;;;;5021594;28;20040;-77
2024/01/13 10:44:09;;;;;;;23.20;8.65;;;3.70;99.90;;;;;;5022195;28;20033;-78
2024/01/13 10:46:43;;;;;;;23.80;9.18;;;3.70;99.90;;;;;;5002623;28;20073;-78
2024/01/13 10:49:13;;;;;;;19.67;9.70;;;3.70;99.90;;;;;;5009981;28;20041;-77
2024/01/13 10:51:46;;;;;;;23.98;9.18;;;3.80;99.90;;;;;;5015332;28;20068;-79
2024/01/13 10:54:13;;;;;;;26.67;10.90;;;3.80;99.90;;;;;;5013257;28;20076;-79
2024/01/13 10:56:40;;;;;;;27.20;9.90;;;3.80;99.90;;;;;;5023056;28;20071;-78
2024/01/13 10:59:08;;;;;;;27.52;10.55;;;3.80;99.90;;;;;;5023572;28;20052;-78
2024/01/13 11:01:34;;;;;;;23.02;9.10;;;3.80;99.90;;;;;;5025469;28;20045;-79
2024/01/13 11:04:03;;;;;;;29.70;11.20;;;3.80;99.90;;;;;;5007564;28;20041;-77
2024/01/13 11:06:29;;;;;;;22.50;10.23;;;3.90;99.90;;;;;;5022833;28;20038;-77
2024/01/13 11:08:55;;;;;;;20.90;8.90;;;3.80;99.90;;;;;;5041755;28;20101;-77
2024/01/13 11:11:34;;;;;;;26.42;11.98;;;3.90;99.90;;;;;;5008088;28;20044;-77
2024/01/13 11:14:17;;;;;;;23.83;9.52;;;3.90;99.90;;;;;;5024734;28;20042;-77
2024/01/13 11:16:47;;;;;;;29.88;11.82;;;3.90;99.90;;;;;;5025026;28;20360;-77
2024/01/13 11:19:13;;;;;;;40.00;13.65;;;3.90;99.90;;;;;;5008335;28;20049;-77
2024/01/13 11:21:41;;;;;;;31.73;12.30;;;4.00;99.90;;;;;;5007778;28;20485;-78
2024/01/13 11:24:13;;;;;;;33.13;12.50;;;4.00;99.90;;;;;;5040507;28;20044;-77
2024/01/13 11:26:46;;;;;;;27.13;8.70;;;4.00;99.90;;;;;;5024524;28;20045;-77
2024/01/13 11:29:20;;;;;;;19.90;8.05;;;4.10;99.90;;;;;;5024648;28;20041;-77
2024/01/13 11:31:47;;;;;;;28.63;11.75;;;4.10;99.90;;;;;;5023311;28;20500;-77
2024/01/13 11:34:17;;;;;;;31.63;12.32;;;4.10;99.90;;;;;;5025585;28;20080;-78
2024/01/13 11:36:47;;;;;;;25.73;10.93;;;4.10;99.90;;;;;;5006670;28;20104;-77
2024/01/13 11:39:13;;;;;;;35.17;12.13;;;4.10;99.90;;;;;;5039227;28;20045;-77
2024/01/13 11:41:46;;;;;;;27.15;11.70;;;4.10;99.90;;;;;;5021193;28;20037;-76
2024/01/13 11:44:25;;;;;;;36.97;13.85;;;4.10;99.90;;;;;;5016849;28;20041;-77
2024/01/13 11:46:58;;;;;;;35.78;13.05;;;4.10;99.90;;;;;;5018789;28;20075;-78
2024/01/13 11:49:30;;;;;;;30.08;11.40;;;4.10;99.90;;;;;;5011165;28;20419;-77
2024/01/13 11:51:58;;;;;;;45.67;13.20;;;4.10;99.90;;;;;;5024683;28;20069;-77
2024/01/13 11:54:25;;;;;;;30.40;12.60;;;4.10;99.90;;;;;;5023691;28;20048;-77
2024/01/13 11:56:51;;;;;;;24.08;10.98;;;4.00;99.90;;;;;;5006448;28;20044;-77
2024/01/13 11:59:17;;;;;;;35.38;12.00;;;4.00;99.90;;;;;;5005963;28;20041;-77
2024/01/13 12:01:47;;;;;;;34.67;12.20;;;4.00;99.90;;;;;;5003220;28;20046;-77
2024/01/13 12:04:14;;;;;;;28.85;9.95;;;4.00;99.90;;;;;;5022831;28;20045;-77
2024/01/13 12:06:42;;;;;;;27.58;11.73;;;4.00;99.90;;;;;;4998552;28;20125;-77
2024/01/13 12:09:08;;;;;;;30.00;10.73;;;4.00;99.90;;;;;;5011599;28;20059;-78
2024/01/13 12:11:34;;;;;;;29.35;11.02;;;4.20;99.90;;;;;;5017680;28;20171;-77
2024/01/13 12:14:05;;;;;;;30.55;9.48;;;4.10;99.90;;;;;;4987798;28;20536;-77
2024/01/13 12:16:32;;;;;;;25.42;10.40;;;4.20;99.90;;;;;;5008242;28;20135;-77
2024/01/13 12:18:58;;;;;;;21.95;10.20;;;4.20;99.90;;;;;;5005482;28;20054;-77
2024/01/13 12:21:24;;;;;;;25.10;10.52;;;4.30;99.90;;;;;;5003952;28;20046;-77
2024/01/13 12:23:50;;;;;;;18.08;8.65;;;4.30;99.90;;;;;;5021818;28;20491;-78
2024/01/13 12:26:15;;;;;;;35.75;10.90;;;4.40;99.90;;;;;;5022882;28;20034;-77
2024/01/13 12:28:41;;;;;;;30.90;10.25;;;4.50;99.90;;;;;;5005501;28;20071;-78
2024/01/13 12:31:07;;;;;;;28.83;10.07;;;4.50;99.90;;;;;;5002818;28;20046;-78
2024/01/13 12:33:34;;;;;;;24.00;9.30;;;4.50;99.90;;;;;;5009662;28;20053;-77
2024/01/13 12:36:01;;;;;;;23.65;8.63;;;4.50;99.90;;;;;;5022325;28;20052;-77
2024/01/13 12:38:30;;;;;;;21.50;8.85;;;4.50;99.90;;;;;;5006699;28;20049;-78
2024/01/13 12:40:59;;;;;;;23.33;9.45;;;4.50;99.90;;;;;;4991289;28;20053;-77
2024/01/13 12:43:26;;;;;;;21.48;8.27;;;4.40;99.90;;;;;;5034186;28;20048;-77
2024/01/13 12:45:53;;;;;;;19.27;7.35;;;4.40;99.90;;;;;;5022681;28;20096;-77
2024/01/13 12:48:19;;;;;;;27.98;8.50;;;4.40;99.90;;;;;;5006416;28;20047;-77